Terminal Aerodrome Forecast
Issued by NWS Charleston, WV

Home | Current Version | Previous Version | Text Only | Print | Product List | Glossary On
Versions: 1 2 3 4 5 6 7 8 9 10 11 12 13 14 15 16 17 18 19 20 21 22 23 24 25 26
124
FTUS41 KRLX 180931 AAA
TAFHTS
TAF AMD
KHTS 180931Z 1810/1906 18009KT P6SM BKN130 WS003/15018KT
     FM181100 18010KT P6SM BKN080
     FM181400 19011G18KT P6SM OVC080
     FM181800 20015G25KT P6SM OVC040
     FM182300 21018G28KT 6SM -SHRA OVC035
     FM190100 23017G28KT 4SM SHRA OVC030
     FM190300 26015G32KT 5SM SHRA OVC015=

USA.gov is the U.S. government's official web portal to all federal, state and local government web resources and services.